createdAt,value
2023-04-14T00:00:46.308Z,100963.22
2023-04-14T00:03:16.877Z,100955.31
2023-04-14T00:05:44.878Z,100962.47
2023-04-14T00:08:12.817Z,100969.50
2023-04-14T00:10:40.752Z,100964.84
2023-04-14T00:13:08.758Z,100963.06
2023-04-14T00:15:36.697Z,100958.72
2023-04-14T00:18:04.772Z,100953.66
2023-04-14T00:20:34.073Z,100964.28
2023-04-14T00:23:02.028Z,100962.78
2023-04-14T00:25:29.942Z,100967.44
2023-04-14T00:27:57.882Z,100977.88
2023-04-14T00:30:25.958Z,100979.06
2023-04-14T00:32:53.886Z,100979.75
2023-04-14T00:35:21.883Z,100983.53
2023-04-14T00:37:51.773Z,100989.06
2023-04-14T00:40:19.765Z,100989.31
2023-04-14T00:42:48.527Z,100987.50
2023-04-14T00:45:16.716Z,100986.03
2023-04-14T00:47:47.261Z,101000.34
2023-04-14T00:50:16.677Z,100997.88
2023-04-14T00:52:45.977Z,100998.28
2023-04-14T00:55:16.097Z,101000.66
2023-04-14T00:57:44.115Z,101005.22
2023-04-14T01:00:13.929Z,101004.50
2023-04-14T01:02:42.552Z,101014.66
2023-04-14T01:05:11.024Z,101019.13
2023-04-14T01:07:39.250Z,101014.47
2023-04-14T01:10:08.436Z,101025.06
2023-04-14T01:12:51.960Z,101021.72
2023-04-14T01:15:32.951Z,101018.50
2023-04-14T01:18:06.897Z,101013.28
2023-04-14T01:20:37.096Z,101023.31
2023-04-14T01:23:08.466Z,101015.78
2023-04-14T01:26:04.038Z,101018.13
2023-04-14T01:28:59.528Z,101014.16
2023-04-14T01:31:31.251Z,101008.75
2023-04-14T01:34:03.306Z,101015.72
2023-04-14T01:36:41.508Z,101020.44
2023-04-14T01:39:11.123Z,101019.69
2023-04-14T01:41:40.696Z,101025.59
2023-04-14T01:44:09.160Z,101025.69
2023-04-14T01:46:39.741Z,101022.94
2023-04-14T01:49:07.838Z,101015.13
2023-04-14T01:51:37.559Z,101012.97
2023-04-14T01:54:06.583Z,101010.31
2023-04-14T01:56:35.091Z,101010.38
2023-04-14T01:59:03.585Z,101009.84
2023-04-14T02:01:32.465Z,101013.69
2023-04-14T02:04:03.041Z,101022.94
2023-04-14T02:06:32.538Z,101013.34
2023-04-14T02:09:02.396Z,101022.41
2023-04-14T02:11:30.945Z,101026.38
2023-04-14T02:14:00.609Z,101007.72
2023-04-14T02:16:28.662Z,101020.41
2023-04-14T02:18:56.546Z,101016.63
2023-04-14T02:21:27.269Z,101014.22
2023-04-14T02:23:55.161Z,101020.34
2023-04-14T02:26:26.418Z,101016.13
2023-04-14T02:29:02.474Z,101015.16
2023-04-14T02:31:32.374Z,101014.34
2023-04-14T02:34:02.134Z,101023.06
2023-04-14T02:36:36.421Z,101028.81
2023-04-14T02:39:10.437Z,101025.53
2023-04-14T02:41:39.757Z,101033.16
2023-04-14T02:44:13.673Z,101033.19
2023-04-14T02:46:43.341Z,101031.31
2023-04-14T02:49:13.084Z,101028.56
2023-04-14T02:51:42.898Z,101030.63
2023-04-14T02:54:10.877Z,101044.69
2023-04-14T02:56:38.972Z,101047.44
2023-04-14T02:59:07.327Z,101044.06
2023-04-14T03:01:35.970Z,101046.97
2023-04-14T03:04:04.065Z,101051.78
2023-04-14T03:06:33.328Z,101045.72
2023-04-14T03:09:03.529Z,101051.75
2023-04-14T03:11:32.226Z,101049.75
2023-04-14T03:14:00.706Z,101044.09
2023-04-14T03:16:30.013Z,101053.22
2023-04-14T03:18:58.263Z,101050.47
2023-04-14T03:21:26.892Z,101054.22
2023-04-14T03:23:55.963Z,101064.53
2023-04-14T03:26:26.884Z,101057.19
2023-04-14T03:28:56.240Z,101067.38
2023-04-14T03:31:31.749Z,101068.09
2023-04-14T03:34:01.429Z,101060.94
2023-04-14T03:36:30.836Z,101057.44
2023-04-14T03:39:01.573Z,101056.22
2023-04-14T03:41:34.354Z,101066.00
2023-04-14T03:44:03.699Z,101066.81
2023-04-14T03:46:31.629Z,101062.47
2023-04-14T03:49:02.358Z,101069.59
2023-04-14T03:51:33.046Z,101070.94
2023-04-14T03:54:02.295Z,101077.69
2023-04-14T03:56:32.725Z,101072.44
2023-04-14T03:59:02.696Z,101074.69
2023-04-14T04:01:31.927Z,101071.97
2023-04-14T04:04:02.286Z,101076.50
2023-04-14T04:06:31.591Z,101081.03
2023-04-14T04:09:01.343Z,101086.13
2023-04-14T04:11:31.584Z,101090.94
2023-04-14T04:14:00.109Z,101088.28
2023-04-14T04:16:29.179Z,101089.00
2023-04-14T04:18:58.115Z,101082.78
2023-04-14T04:21:28.393Z,101088.03
2023-04-14T04:23:57.102Z,101089.78
2023-04-14T04:26:26.252Z,101086.09
2023-04-14T04:28:55.932Z,101091.50
2023-04-14T04:31:25.188Z,101092.66
2023-04-14T04:33:53.147Z,101094.09
2023-04-14T04:36:21.404Z,101096.38
2023-04-14T04:38:50.420Z,101100.94
2023-04-14T04:41:24.752Z,101093.31
2023-04-14T04:43:52.672Z,101105.19
2023-04-14T04:46:41.897Z,101106.56
2023-04-14T04:49:09.843Z,101108.00
2023-04-14T04:51:37.767Z,101103.91
2023-04-14T04:54:06.003Z,101102.94
2023-04-14T04:56:34.327Z,101100.94
2023-04-14T04:59:02.511Z,101109.78
2023-04-14T05:01:31.983Z,101106.25
2023-04-14T05:04:00.050Z,101103.94
2023-04-14T05:06:28.239Z,101101.84
2023-04-14T05:08:56.642Z,101104.88
2023-04-14T05:11:24.676Z,101107.66
2023-04-14T05:13:52.589Z,101112.78
2023-04-14T05:16:20.563Z,101107.25
2023-04-14T05:18:49.951Z,101109.78
2023-04-14T05:21:17.858Z,101111.22
2023-04-14T05:23:46.543Z,101102.78
2023-04-14T05:26:39.000Z,101104.63
2023-04-14T05:29:03.193Z,101106.59
2023-04-14T05:31:31.382Z,101108.44
2023-04-14T05:34:01.249Z,101120.38
2023-04-14T05:36:29.504Z,101117.41
2023-04-14T05:38:57.388Z,101115.16
2023-04-14T05:41:25.340Z,101118.44
2023-04-14T05:43:53.265Z,101117.91
2023-04-14T05:46:21.287Z,101107.28
2023-04-14T05:48:49.294Z,101112.66
2023-04-14T05:51:18.580Z,101121.81
2023-04-14T05:53:46.578Z,101120.16
2023-04-14T05:56:14.531Z,101112.91
2023-04-14T05:58:42.423Z,101123.91
2023-04-14T06:01:10.809Z,101123.56
2023-04-14T06:03:40.593Z,101118.41
2023-04-14T06:06:09.154Z,101129.00
2023-04-14T06:08:38.547Z,101130.19
2023-04-14T06:11:06.772Z,101123.81
2023-04-14T06:13:36.289Z,101128.13
2023-04-14T06:16:04.734Z,101127.72
2023-04-14T06:18:33.202Z,101123.94
2023-04-14T06:21:01.172Z,101122.47
2023-04-14T06:23:29.137Z,101119.56
2023-04-14T06:25:58.740Z,101120.47
2023-04-14T06:28:26.661Z,101120.09
2023-04-14T06:30:54.634Z,101118.91
2023-04-14T06:33:22.576Z,101106.88
2023-04-14T06:35:50.773Z,101114.41
2023-04-14T06:38:18.647Z,101115.09
2023-04-14T06:40:46.577Z,101109.41
2023-04-14T06:43:17.793Z,101110.31
2023-04-14T06:45:45.727Z,101112.72
2023-04-14T06:48:14.388Z,101119.31
2023-04-14T06:50:43.768Z,101107.00
2023-04-14T06:53:12.348Z,101113.44
2023-04-14T06:55:42.002Z,101097.25
2023-04-14T06:58:09.918Z,101104.91
2023-04-14T07:00:39.266Z,101109.19
2023-04-14T07:03:07.364Z,101102.41
2023-04-14T07:05:35.290Z,101106.25
2023-04-14T07:08:03.188Z,101104.97
2023-04-14T07:10:31.108Z,101095.38
2023-04-14T07:12:59.561Z,101106.22
2023-04-14T07:15:27.585Z,101106.84
2023-04-14T07:17:59.370Z,101105.53
2023-04-14T07:20:28.151Z,101113.81
2023-04-14T07:22:56.341Z,101111.63
2023-04-14T07:25:24.546Z,101110.72
2023-04-14T07:28:02.546Z,101112.84
2023-04-14T07:30:31.628Z,101108.94
2023-04-14T07:33:02.676Z,101109.31
2023-04-14T07:35:30.798Z,101119.00
2023-04-14T07:37:58.740Z,101111.06
2023-04-14T07:40:27.006Z,101115.00
2023-04-14T07:42:54.957Z,101117.28
2023-04-14T07:45:22.921Z,101120.91
2023-04-14T07:47:52.228Z,101109.09
2023-04-14T07:50:21.891Z,101105.94
2023-04-14T07:52:49.800Z,101117.06
2023-04-14T07:55:17.799Z,101110.13
2023-04-14T07:57:45.748Z,101112.19
2023-04-14T08:00:14.805Z,101114.88
2023-04-14T08:02:42.841Z,101114.44
2023-04-14T08:05:10.900Z,101113.31
2023-04-14T08:07:41.577Z,101126.72
2023-04-14T08:10:09.815Z,101113.25
2023-04-14T08:12:37.773Z,101115.94
2023-04-14T08:15:06.181Z,101114.22
2023-04-14T08:17:34.153Z,101115.00
2023-04-14T08:20:02.083Z,101113.59
2023-04-14T08:22:29.991Z,101113.53
2023-04-14T08:24:59.260Z,101111.06
2023-04-14T08:27:27.175Z,101118.41
2023-04-14T08:29:55.095Z,101104.59
2023-04-14T08:32:23.053Z,101113.41
2023-04-14T08:35:35.111Z,101121.84
2023-04-14T08:37:38.886Z,101115.50
2023-04-14T08:40:11.035Z,101115.31
2023-04-14T08:42:39.058Z,101127.44
2023-04-14T08:45:08.100Z,101118.16
2023-04-14T08:47:37.493Z,101116.44
2023-04-14T08:50:08.102Z,101116.25
2023-04-14T08:52:37.331Z,101113.72
2023-04-14T08:55:08.506Z,101115.84
2023-04-14T08:57:36.480Z,101116.22
2023-04-14T09:00:05.047Z,101114.41
2023-04-14T09:02:34.047Z,101114.34
2023-04-14T09:05:02.383Z,101111.31
2023-04-14T09:07:31.093Z,101114.72
2023-04-14T09:09:59.179Z,101112.78
2023-04-14T09:12:28.587Z,101114.00
2023-04-14T09:14:58.274Z,101102.69
2023-04-14T09:17:26.511Z,101106.56
2023-04-14T09:20:37.619Z,101115.06
2023-04-14T09:22:43.004Z,101106.53
2023-04-14T09:25:11.649Z,101102.56
2023-04-14T09:27:41.357Z,101103.66
2023-04-14T09:30:10.789Z,101105.81
2023-04-14T09:32:39.598Z,101102.66
2023-04-14T09:35:07.949Z,101103.13
2023-04-14T09:37:43.824Z,101099.91
2023-04-14T09:40:12.899Z,101106.78
2023-04-14T09:42:42.986Z,101114.19
2023-04-14T09:45:11.348Z,101119.47
2023-04-14T09:47:39.370Z,101120.44
2023-04-14T09:50:08.594Z,101120.78
2023-04-14T09:52:40.984Z,101120.28
2023-04-14T09:55:11.726Z,101116.59
2023-04-14T09:57:44.081Z,101116.38
2023-04-14T10:00:21.653Z,101120.56
2023-04-14T10:02:50.350Z,101118.28
2023-04-14T10:05:20.562Z,101122.44
2023-04-14T10:07:49.245Z,101122.09
2023-04-14T10:10:17.675Z,101117.00
2023-04-14T10:12:47.231Z,101121.75
2023-04-14T10:15:17.378Z,101111.66
2023-04-14T10:17:45.376Z,101115.63
2023-04-14T10:20:13.623Z,101105.09
2023-04-14T10:22:42.249Z,101109.19
2023-04-14T10:25:11.219Z,101103.81
2023-04-14T10:27:40.268Z,101101.44
2023-04-14T10:30:10.366Z,101097.94
2023-04-14T10:32:40.523Z,101087.19
2023-04-14T10:35:11.065Z,101085.44
2023-04-14T10:37:39.518Z,101078.16
2023-04-14T10:40:08.492Z,101075.25
2023-04-14T10:42:57.513Z,101076.47
2023-04-14T10:45:26.831Z,101074.06
2023-04-14T10:47:56.833Z,101075.28
2023-04-14T10:50:26.010Z,101074.19
2023-04-14T10:52:56.164Z,101068.50
2023-04-14T10:55:24.875Z,101074.84
2023-04-14T10:57:54.551Z,101080.66
2023-04-14T11:00:25.192Z,101063.16
2023-04-14T11:02:59.248Z,101060.03
2023-04-14T11:05:27.396Z,101066.31
2023-04-14T11:07:59.922Z,101061.41
2023-04-14T11:10:32.491Z,101058.75
2023-04-14T11:13:04.942Z,101059.78
2023-04-14T11:15:46.747Z,101059.28
2023-04-14T11:18:17.539Z,101056.09
2023-04-14T11:20:45.916Z,101061.25
2023-04-14T11:23:15.166Z,101065.06
2023-04-14T11:25:43.459Z,101059.44
2023-04-14T11:28:11.862Z,101060.19
2023-04-14T11:30:43.141Z,101055.16
2023-04-14T11:33:11.458Z,101052.91
2023-04-14T11:35:43.646Z,101061.25
2023-04-14T11:38:12.446Z,101051.22
2023-04-14T11:40:40.804Z,101052.09
2023-04-14T11:43:09.149Z,101052.53
2023-04-14T11:45:37.619Z,101052.63
2023-04-14T11:48:07.287Z,101047.59
2023-04-14T11:50:38.921Z,101048.59
2023-04-14T11:53:09.998Z,101042.28
2023-04-14T11:55:38.472Z,101041.22
2023-04-14T11:58:06.772Z,101038.50
2023-04-14T12:00:35.159Z,101039.16
2023-04-14T12:03:04.130Z,101031.94
2023-04-14T12:05:33.861Z,101030.22
2023-04-14T12:08:03.880Z,101032.41
2023-04-14T12:10:34.517Z,101022.53
2023-04-14T12:13:03.084Z,101029.53
2023-04-14T12:15:32.380Z,101030.72
2023-04-14T12:18:00.680Z,101031.78
2023-04-14T12:20:30.356Z,101034.63
2023-04-14T12:23:03.011Z,101029.00
2023-04-14T12:25:34.524Z,101022.78
2023-04-14T12:28:06.175Z,101029.00
2023-04-14T12:30:34.178Z,101022.06
2023-04-14T12:33:09.606Z,101033.84
2023-04-14T12:35:37.552Z,101020.91
2023-04-14T12:38:10.960Z,101029.94
2023-04-14T12:40:42.586Z,101018.94
2023-04-14T12:43:10.880Z,101034.72
2023-04-14T12:45:42.793Z,101033.81
2023-04-14T12:48:10.731Z,101035.16
2023-04-14T12:50:38.746Z,101036.41
2023-04-14T12:53:24.474Z,101031.69
2023-04-14T12:56:07.522Z,101025.03
2023-04-14T12:58:36.448Z,101017.47
2023-04-14T13:01:06.142Z,101020.28
2023-04-14T13:03:45.987Z,101014.94
2023-04-14T13:06:16.471Z,101013.50
2023-04-14T13:08:46.246Z,101021.94
2023-04-14T13:11:16.329Z,101009.81
2023-04-14T13:13:45.563Z,100997.13
2023-04-14T13:16:16.818Z,101008.72
2023-04-14T13:18:47.041Z,100992.69
2023-04-14T13:21:15.193Z,100997.75
2023-04-14T13:23:43.163Z,100992.38
2023-04-14T13:26:11.389Z,100983.38
2023-04-14T13:28:40.752Z,100983.09
2023-04-14T13:31:08.648Z,100983.66
2023-04-14T13:33:36.755Z,100981.97
2023-04-14T13:36:04.936Z,100972.97
2023-04-14T13:38:33.477Z,100978.88
2023-04-14T13:41:01.503Z,100972.38
2023-04-14T13:43:29.990Z,100982.53
2023-04-14T13:45:59.545Z,100970.69
2023-04-14T13:48:27.581Z,100961.91
2023-04-14T13:50:56.029Z,100972.31
2023-04-14T13:53:24.077Z,100962.16
2023-04-14T13:55:52.099Z,100959.22
2023-04-14T13:58:20.012Z,100962.72
2023-04-14T14:00:47.969Z,100969.16
2023-04-14T14:03:17.586Z,100970.41
2023-04-14T14:05:45.707Z,100963.44
2023-04-14T14:08:14.828Z,100967.41
2023-04-14T14:10:42.820Z,100969.47
2023-04-14T14:13:10.750Z,100968.34
2023-04-14T14:15:38.701Z,100960.78
2023-04-14T14:18:07.462Z,100966.19
2023-04-14T14:20:36.803Z,100961.41
2023-04-14T14:23:04.713Z,100967.63
2023-04-14T14:25:32.616Z,100950.16
2023-04-14T14:28:00.547Z,100945.28
2023-04-14T14:30:28.638Z,100940.88
2023-04-14T14:32:56.706Z,100946.53
2023-04-14T14:35:24.636Z,100950.50
2023-04-14T14:37:53.977Z,100945.97
2023-04-14T14:40:22.249Z,100942.97
2023-04-14T14:42:50.514Z,100930.59
2023-04-14T14:45:18.978Z,100947.31
2023-04-14T14:47:58.663Z,100934.28
2023-04-14T14:50:26.651Z,100930.28
2023-04-14T14:52:56.996Z,100936.50
2023-04-14T14:55:24.996Z,100937.28
2023-04-14T14:57:52.941Z,100928.25
2023-04-14T15:00:21.388Z,100940.69
2023-04-14T15:02:49.734Z,100934.34
2023-04-14T15:05:18.049Z,100928.66
2023-04-14T15:07:46.003Z,100938.00
2023-04-14T15:10:16.047Z,100928.03
2023-04-14T15:12:43.971Z,100938.59
2023-04-14T15:15:13.033Z,100933.06
2023-04-14T15:17:41.120Z,100929.75
2023-04-14T15:20:10.102Z,100932.06
2023-04-14T15:22:38.145Z,100933.34
2023-04-14T15:25:07.069Z,100939.38
2023-04-14T15:27:36.539Z,100947.34
2023-04-14T15:30:07.514Z,100939.97
2023-04-14T15:32:35.502Z,100939.13
2023-04-14T15:35:03.459Z,100936.13
2023-04-14T15:37:31.387Z,100933.72
2023-04-14T15:39:59.525Z,100933.47
2023-04-14T15:42:27.581Z,100934.38
2023-04-14T15:44:56.883Z,100931.00
2023-04-14T15:47:24.821Z,100939.19
2023-04-14T15:50:09.942Z,100938.34
2023-04-14T15:52:41.531Z,100933.50
2023-04-14T15:55:13.766Z,100932.97
2023-04-14T15:57:41.690Z,100931.53
2023-04-14T16:00:12.656Z,100929.53
2023-04-14T16:02:42.147Z,100928.00
2023-04-14T16:05:10.706Z,100937.41
2023-04-14T16:07:38.731Z,100938.31
2023-04-14T16:10:08.573Z,100932.72
2023-04-14T16:12:36.670Z,100933.59
2023-04-14T16:15:08.209Z,100932.19
2023-04-14T16:17:37.574Z,100938.38
2023-04-14T16:20:11.493Z,100931.91
2023-04-14T16:22:39.493Z,100928.56
2023-04-14T16:25:08.468Z,100927.84
2023-04-14T16:27:36.422Z,100937.47
2023-04-14T16:30:10.611Z,100934.69
2023-04-14T16:32:40.010Z,100935.81
2023-04-14T16:35:09.380Z,100930.13
2023-04-14T16:37:37.554Z,100932.94
2023-04-14T16:40:06.974Z,100937.50
2023-04-14T16:42:37.984Z,100932.38
2023-04-14T16:45:07.198Z,100931.00
2023-04-14T16:47:35.709Z,100939.75
2023-04-14T16:50:05.413Z,100926.66
2023-04-14T16:52:34.979Z,100931.09
2023-04-14T16:55:03.242Z,100927.94
2023-04-14T16:57:31.410Z,100939.13
2023-04-14T16:59:59.396Z,100934.69
2023-04-14T17:02:27.419Z,100938.53
2023-04-14T17:04:57.058Z,100940.06
2023-04-14T17:07:26.547Z,100944.53
2023-04-14T17:09:54.427Z,100947.28
2023-04-14T17:12:22.396Z,100946.91
2023-04-14T17:14:50.479Z,100945.53
2023-04-14T17:17:18.373Z,100951.19
2023-04-14T17:19:46.719Z,100955.31
2023-04-14T17:22:15.598Z,100952.41
2023-04-14T17:24:45.716Z,100955.47
2023-04-14T17:27:13.632Z,100952.69
2023-04-14T17:29:42.077Z,100949.28
2023-04-14T17:32:10.697Z,100952.41
2023-04-14T17:34:38.657Z,100958.31
2023-04-14T17:37:06.592Z,100960.31
2023-04-14T17:39:34.541Z,100963.38
2023-04-14T17:42:03.963Z,100949.44
2023-04-14T17:44:33.742Z,100960.72
2023-04-14T17:47:03.122Z,100964.31
2023-04-14T17:49:31.563Z,100960.03
2023-04-14T17:51:59.509Z,100966.97
2023-04-14T17:54:27.496Z,100971.97
2023-04-14T17:56:56.714Z,100971.06
2023-04-14T17:59:26.340Z,100972.06
2023-04-14T18:01:54.819Z,100986.94
2023-04-14T18:04:23.096Z,100993.28
2023-04-14T18:06:51.256Z,100993.00
2023-04-14T18:09:19.193Z,100990.47
2023-04-14T18:11:47.130Z,100988.94
2023-04-14T18:14:15.431Z,100999.16
2023-04-14T18:16:44.740Z,101002.19
2023-04-14T18:19:12.746Z,101006.03
2023-04-14T18:21:41.409Z,101006.63
2023-04-14T18:26:43.401Z,101006.25
2023-04-14T18:29:12.020Z,101001.66
2023-04-14T18:31:39.988Z,101013.53
2023-04-14T18:34:10.159Z,101015.66
2023-04-14T18:36:38.762Z,101008.97
2023-04-14T18:39:07.120Z,101010.47
2023-04-14T18:41:35.088Z,101012.13
2023-04-14T18:44:04.380Z,101012.34
2023-04-14T18:46:32.383Z,101018.47
2023-04-14T18:49:00.499Z,101021.28
2023-04-14T18:51:30.369Z,101022.28
2023-04-14T18:53:58.382Z,101030.94
2023-04-14T18:56:28.076Z,101027.41
2023-04-14T18:58:57.537Z,101034.69
2023-04-14T19:01:25.714Z,101028.41
2023-04-14T19:03:54.503Z,101032.13
2023-04-14T19:06:22.883Z,101034.31
2023-04-14T19:08:52.157Z,101039.56
2023-04-14T19:11:20.690Z,101040.69
2023-04-14T19:13:48.781Z,101046.41
2023-04-14T19:16:17.175Z,101048.34
2023-04-14T19:18:45.136Z,101047.66
2023-04-14T19:21:13.363Z,101048.50
2023-04-14T19:23:42.310Z,101050.13
2023-04-14T19:26:13.552Z,101054.13
2023-04-14T19:28:42.542Z,101056.22
2023-04-14T19:31:10.775Z,101049.34
2023-04-14T19:33:39.210Z,101052.47
2023-04-14T19:36:12.858Z,101047.63
2023-04-14T19:38:40.748Z,101047.50
2023-04-14T19:41:08.882Z,101051.94
2023-04-14T19:43:38.384Z,101038.69
2023-04-14T19:46:07.912Z,101049.84
2023-04-14T19:48:35.940Z,101041.25
2023-04-14T19:51:04.395Z,101050.13
2023-04-14T19:53:55.712Z,101045.03
2023-04-14T19:56:23.794Z,101038.13
2023-04-14T19:58:54.008Z,101044.19
2023-04-14T20:01:24.219Z,101038.50
2023-04-14T20:04:04.421Z,101042.03
2023-04-14T20:06:36.470Z,101041.31
2023-04-14T20:09:04.761Z,101037.91
2023-04-14T20:11:32.991Z,101032.34
2023-04-14T20:14:03.816Z,101035.13
2023-04-14T20:16:32.678Z,101033.91
2023-04-14T20:19:00.860Z,101027.97
2023-04-14T20:21:29.482Z,101026.75
2023-04-14T20:23:57.704Z,101032.94
2023-04-14T20:26:25.573Z,101025.50
2023-04-14T20:28:53.488Z,101027.84
2023-04-14T20:31:24.341Z,101029.50
2023-04-14T20:33:52.334Z,101019.06
2023-04-14T20:36:20.657Z,101024.06
2023-04-14T20:38:48.558Z,101018.13
2023-04-14T20:41:16.537Z,101022.84
2023-04-14T20:43:44.478Z,101024.28
2023-04-14T20:46:12.462Z,101026.94
2023-04-14T20:48:42.170Z,101026.84
2023-04-14T20:51:10.096Z,101028.78
2023-04-14T20:53:38.065Z,101023.06
2023-04-14T20:56:06.287Z,101019.31
2023-04-14T20:58:34.311Z,101022.78
2023-04-14T21:01:02.969Z,101016.84
2023-04-14T21:03:33.318Z,101023.41
2023-04-14T21:06:02.808Z,101016.47
2023-04-14T21:08:30.767Z,101011.88
2023-04-14T21:11:15.895Z,101021.78
2023-04-14T21:15:28.076Z,101014.13
2023-04-14T21:16:33.334Z,101014.41
2023-04-14T21:19:02.848Z,101011.72
2023-04-14T21:21:33.174Z,101010.84
2023-04-14T21:24:01.626Z,101008.41
2023-04-14T21:26:29.698Z,101008.41
2023-04-14T21:28:57.669Z,101008.88
2023-04-14T21:31:25.916Z,101010.28
2023-04-14T21:33:53.884Z,101011.63
2023-04-14T21:36:21.932Z,101016.09
2023-04-14T21:38:51.523Z,101019.03
2023-04-14T21:41:20.077Z,101014.94
2023-04-14T21:43:47.973Z,101008.50
2023-04-14T21:46:16.073Z,100996.47
2023-04-14T21:48:44.072Z,101010.19
2023-04-14T21:51:12.006Z,101009.53
2023-04-14T21:53:39.939Z,101003.19
2023-04-14T21:56:11.028Z,101010.31
2023-04-14T21:58:40.248Z,101002.72
2023-04-14T22:01:09.673Z,101012.47
2023-04-14T22:03:40.462Z,101010.56
2023-04-14T22:06:09.987Z,101002.84
2023-04-14T22:08:39.192Z,101004.53
2023-04-14T22:11:07.522Z,101007.69
2023-04-14T22:13:36.869Z,101001.63
2023-04-14T22:16:05.236Z,101002.47
2023-04-14T22:18:33.192Z,101004.88
2023-04-14T22:21:01.546Z,100998.19
2023-04-14T22:23:29.482Z,100999.44
2023-04-14T22:25:57.463Z,101004.16
2023-04-14T22:28:25.397Z,101009.72
2023-04-14T22:30:54.819Z,101005.47
2023-04-14T22:33:22.737Z,101008.09
2023-04-14T22:35:50.672Z,101005.56
2023-04-14T22:38:18.677Z,101005.69
2023-04-14T22:40:46.726Z,101012.59
2023-04-14T22:43:15.423Z,101010.50
2023-04-14T22:45:43.404Z,101009.06
2023-04-14T22:48:14.601Z,101013.38
2023-04-14T22:50:42.785Z,101011.06
2023-04-14T22:53:10.925Z,101015.47
2023-04-14T22:55:38.962Z,101005.28
2023-04-14T22:58:06.903Z,101007.91
2023-04-14T23:00:34.822Z,101012.03
2023-04-14T23:03:03.167Z,101011.38
2023-04-14T23:05:32.603Z,101011.84
2023-04-14T23:08:00.523Z,101004.34
2023-04-14T23:10:28.573Z,101008.00
2023-04-14T23:12:56.464Z,101010.09
2023-04-14T23:15:24.433Z,101003.66
2023-04-14T23:17:52.315Z,101002.44
2023-04-14T23:20:20.610Z,100999.13
2023-04-14T23:22:50.596Z,101000.34
2023-04-14T23:25:18.550Z,100995.16
2023-04-14T23:27:46.488Z,100993.31
2023-04-14T23:30:14.408Z,100996.97
2023-04-14T23:32:42.313Z,101000.72
2023-04-14T23:35:10.950Z,100995.63
2023-04-14T23:37:38.909Z,100996.47
2023-04-14T23:40:09.777Z,100988.34
2023-04-14T23:42:37.811Z,100989.00
2023-04-14T23:45:06.925Z,100988.59
2023-04-14T23:47:34.921Z,100983.72
2023-04-14T23:50:03.060Z,100982.34
2023-04-14T23:52:31.021Z,100983.25
2023-04-14T23:54:58.924Z,100986.97
2023-04-14T23:57:28.362Z,100988.81
2023-04-14T23:59:56.889Z,100973.91
